createdAt,value
2022-10-13T00:01:16.670Z,39.00
2022-10-13T00:03:47.571Z,34.22
2022-10-13T00:06:25.716Z,37.35
2022-10-13T00:08:54.605Z,26.98
2022-10-13T00:11:27.660Z,39.33
2022-10-13T00:13:59.327Z,39.03
2022-10-13T00:16:31.424Z,35.97
2022-10-13T00:18:59.597Z,32.83
2022-10-13T00:21:28.194Z,38.63
2022-10-13T00:23:56.414Z,40.80
2022-10-13T00:26:26.845Z,42.92
2022-10-13T00:28:56.671Z,42.40
2022-10-13T00:31:31.411Z,32.13
2022-10-13T00:34:01.226Z,32.92
2022-10-13T00:36:29.540Z,29.60
2022-10-13T00:38:57.985Z,34.15
2022-10-13T00:41:25.932Z,31.93
2022-10-13T00:44:03.808Z,34.97
2022-10-13T00:46:35.107Z,35.97
2022-10-13T00:49:09.642Z,30.77
2022-10-13T00:51:44.377Z,40.60
2022-10-13T00:54:17.531Z,32.40
2022-10-13T00:56:46.791Z,41.65
2022-10-13T01:04:27.372Z,30.67
2022-10-13T01:06:56.866Z,32.28
2022-10-13T01:09:24.626Z,33.70
2022-10-13T01:12:28.926Z,30.45
2022-10-13T01:15:05.624Z,38.42
2022-10-13T01:18:10.757Z,39.67
2022-10-13T01:21:06.496Z,29.63
2022-10-13T01:23:42.577Z,36.17
2022-10-13T01:27:16.174Z,29.25
2022-10-13T01:30:12.106Z,33.90
2022-10-13T01:32:51.393Z,33.13
2022-10-13T01:35:43.030Z,32.42
2022-10-13T01:38:39.928Z,35.22
2022-10-13T01:41:29.298Z,30.60
2022-10-13T01:44:22.692Z,32.58
2022-10-13T01:46:57.222Z,38.35
2022-10-13T01:49:31.582Z,32.72
2022-10-13T01:52:06.421Z,38.47
2022-10-13T01:54:34.450Z,37.40
2022-10-13T01:57:02.580Z,36.40
2022-10-13T01:59:36.115Z,36.42
2022-10-13T02:02:22.731Z,41.90
2022-10-13T02:05:33.158Z,38.55
2022-10-13T02:08:24.186Z,39.08
2022-10-13T02:11:13.472Z,42.05
2022-10-13T02:14:06.409Z,41.58
2022-10-13T02:16:40.397Z,43.20
2022-10-13T02:19:14.605Z,35.95
2022-10-13T02:21:42.914Z,43.38
2022-10-13T02:24:11.344Z,38.07
2022-10-13T02:26:38.904Z,32.90
2022-10-13T02:29:17.247Z,39.78
2022-10-13T02:31:45.918Z,43.72
2022-10-13T02:34:15.021Z,39.10
2022-10-13T02:36:48.379Z,41.25
2022-10-13T02:39:17.930Z,44.88
2022-10-13T02:41:45.405Z,37.85
2022-10-13T02:44:12.923Z,39.05
2022-10-13T02:46:43.256Z,40.38
2022-10-13T02:49:11.066Z,43.42
2022-10-13T02:51:40.300Z,36.40
2022-10-13T02:54:08.738Z,38.10
2022-10-13T02:56:36.211Z,42.78
2022-10-13T02:59:03.959Z,43.55
2022-10-13T03:01:31.900Z,42.17
2022-10-13T03:03:59.652Z,41.35
2022-10-13T03:06:27.341Z,38.95
2022-10-13T03:08:55.133Z,44.17
2022-10-13T03:11:22.684Z,45.55
2022-10-13T03:13:50.181Z,43.35
2022-10-13T03:16:18.047Z,45.83
2022-10-13T03:18:45.636Z,40.60
2022-10-13T03:21:13.138Z,45.97
2022-10-13T03:23:40.880Z,49.22
2022-10-13T03:26:08.380Z,53.25
2022-10-13T03:28:35.819Z,44.67
2022-10-13T03:31:09.576Z,57.28
2022-10-13T03:33:37.267Z,50.97
2022-10-13T03:36:07.521Z,45.97
2022-10-13T03:38:36.145Z,47.15
2022-10-13T03:41:13.804Z,50.20
2022-10-13T03:43:43.507Z,44.63
2022-10-13T03:48:41.897Z,46.65
2022-10-13T03:51:14.077Z,44.53
2022-10-13T03:53:47.346Z,38.65
2022-10-13T03:56:20.153Z,42.67
2022-10-13T03:58:57.659Z,44.13
2022-10-13T04:01:30.231Z,44.92
2022-10-13T04:04:00.160Z,41.25
2022-10-13T04:06:28.696Z,37.58
2022-10-13T04:08:56.672Z,41.55
2022-10-13T04:11:24.494Z,45.22
2022-10-13T04:13:53.050Z,44.63
2022-10-13T04:16:25.070Z,43.95
2022-10-13T04:19:01.197Z,44.05
2022-10-13T04:21:31.094Z,45.28
2022-10-13T04:24:00.506Z,46.53
2022-10-13T04:26:30.777Z,42.60
2022-10-13T04:29:00.089Z,42.53
2022-10-13T04:31:30.678Z,46.70
2022-10-13T04:33:59.053Z,44.15
2022-10-13T04:36:27.391Z,47.88
2022-10-13T04:38:55.959Z,41.63
2022-10-13T04:41:24.190Z,49.13
2022-10-13T04:43:53.390Z,49.43
2022-10-13T04:46:25.373Z,49.65
2022-10-13T04:48:55.749Z,52.22
2022-10-13T04:51:29.547Z,44.63
2022-10-13T04:54:01.166Z,52.35
2022-10-13T04:56:29.338Z,57.70
2022-10-13T04:59:05.496Z,51.40
2022-10-13T05:01:33.915Z,51.28
2022-10-13T05:04:03.839Z,57.67
2022-10-13T05:06:58.973Z,58.28
2022-10-13T05:09:29.009Z,65.22
2022-10-13T05:11:57.367Z,64.00
2022-10-13T05:14:25.047Z,61.78
2022-10-13T05:16:52.453Z,69.82
2022-10-13T05:19:20.535Z,59.22
2022-10-13T05:21:49.878Z,82.18
2022-10-13T05:24:17.730Z,79.90
2022-10-13T05:26:47.951Z,84.32
2022-10-13T05:29:15.465Z,64.45
2022-10-13T05:31:43.261Z,58.13
2022-10-13T05:34:11.342Z,66.68
2022-10-13T05:36:38.887Z,59.38
2022-10-13T05:39:08.441Z,54.15
2022-10-13T05:44:10.485Z,60.95
2022-10-13T05:46:44.741Z,58.50
2022-10-13T05:49:12.692Z,57.33
2022-10-13T05:52:04.464Z,65.30
2022-10-13T05:54:42.202Z,64.95
2022-10-13T05:57:28.808Z,53.85
2022-10-13T06:00:19.478Z,64.15
2022-10-13T06:03:04.358Z,51.72
2022-10-13T06:05:33.050Z,53.25
2022-10-13T06:08:00.870Z,47.67
2022-10-13T06:10:29.274Z,57.15
2022-10-13T06:12:56.788Z,50.08
2022-10-13T06:15:27.954Z,59.85
2022-10-13T06:17:57.246Z,51.50
2022-10-13T06:20:25.341Z,63.90
2022-10-13T06:22:54.586Z,60.45
2022-10-13T06:27:49.658Z,63.28
2022-10-13T06:30:17.187Z,63.15
2022-10-13T06:32:44.884Z,65.38
2022-10-13T06:35:12.479Z,69.00
2022-10-13T06:37:40.309Z,61.17
2022-10-13T06:40:11.582Z,62.53
2022-10-13T06:42:39.369Z,74.00
2022-10-13T06:45:13.570Z,84.13
2022-10-13T06:47:41.486Z,72.72
2022-10-13T06:50:09.537Z,62.75
2022-10-13T06:52:37.795Z,84.82
2022-10-13T06:55:06.218Z,53.38
2022-10-13T06:57:34.086Z,69.20
2022-10-13T07:00:06.149Z,53.38
2022-10-13T07:02:34.792Z,55.78
2022-10-13T07:05:02.302Z,68.63
2022-10-13T07:07:30.320Z,50.05
2022-10-13T07:09:57.969Z,69.60
2022-10-13T07:12:25.702Z,51.75
2022-10-13T07:14:53.198Z,69.15
2022-10-13T07:17:21.157Z,57.80
2022-10-13T07:19:49.308Z,56.53
2022-10-13T07:22:17.020Z,59.13
2022-10-13T07:24:44.840Z,58.72
2022-10-13T07:27:12.521Z,53.78
2022-10-13T07:29:39.999Z,54.15
2022-10-13T07:32:07.824Z,55.13
2022-10-13T07:34:35.396Z,54.35
2022-10-13T07:37:02.949Z,67.55
2022-10-13T07:39:30.971Z,60.60
2022-10-13T07:41:58.470Z,51.63
2022-10-13T07:44:26.461Z,59.03
2022-10-13T07:46:53.953Z,56.53
2022-10-13T07:49:22.098Z,52.47
2022-10-13T07:51:49.512Z,67.05
2022-10-13T07:54:23.716Z,56.92
2022-10-13T07:56:56.167Z,57.85
2022-10-13T08:01:51.967Z,59.20
2022-10-13T08:04:19.823Z,49.92
2022-10-13T08:06:47.735Z,50.63
2022-10-13T08:09:15.245Z,51.63
2022-10-13T08:11:42.918Z,47.25
2022-10-13T08:14:13.514Z,60.40
2022-10-13T08:16:48.572Z,46.67
2022-10-13T08:19:22.052Z,42.30
2022-10-13T08:21:58.070Z,40.80
2022-10-13T08:24:26.877Z,39.40
2022-10-13T08:26:55.570Z,49.05
2022-10-13T08:29:24.072Z,49.97
2022-10-13T08:34:25.733Z,46.20
2022-10-13T08:36:56.445Z,49.95
2022-10-13T08:39:43.395Z,40.25
2022-10-13T08:42:29.628Z,44.60
2022-10-13T08:48:18.123Z,27.73
2022-10-13T08:50:52.105Z,30.90
2022-10-13T08:53:47.078Z,30.95
2022-10-13T08:56:26.244Z,40.08
2022-10-13T08:58:56.671Z,28.63
2022-10-13T09:01:34.323Z,27.20
2022-10-13T09:04:11.122Z,20.63
2022-10-13T09:06:51.906Z,18.35
2022-10-13T09:09:19.932Z,21.38
2022-10-13T09:11:50.407Z,26.00
2022-10-13T09:14:35.025Z,17.17
2022-10-13T09:17:28.719Z,25.20
2022-10-13T09:20:07.272Z,18.83
2022-10-13T09:22:39.988Z,27.15
2022-10-13T09:25:07.399Z,23.17
2022-10-13T09:27:58.727Z,24.40
2022-10-13T09:30:33.852Z,17.40
2022-10-13T09:33:13.118Z,20.58
2022-10-13T09:35:46.892Z,21.50
2022-10-13T09:38:26.088Z,18.98
2022-10-13T09:41:22.418Z,21.90
2022-10-13T09:43:50.021Z,19.70
2022-10-13T09:46:27.785Z,23.10
2022-10-13T09:49:03.872Z,20.80
2022-10-13T09:51:37.183Z,23.15
2022-10-13T09:54:35.736Z,32.33
2022-10-13T09:57:26.227Z,20.00
2022-10-13T10:03:22.017Z,22.48
2022-10-13T10:05:56.308Z,19.13
2022-10-13T10:09:03.355Z,21.45
2022-10-13T10:11:41.914Z,22.70
2022-10-13T10:14:29.378Z,22.20
2022-10-13T10:17:27.942Z,23.02
2022-10-13T10:20:26.407Z,21.13
2022-10-13T10:23:37.158Z,25.23
2022-10-13T10:26:32.850Z,23.23
2022-10-13T10:29:25.214Z,28.10
2022-10-13T10:32:13.001Z,22.17
2022-10-13T10:34:58.101Z,29.13
2022-10-13T10:37:48.779Z,26.35
2022-10-13T10:41:05.441Z,18.70
2022-10-13T10:43:40.030Z,19.33
2022-10-13T10:46:24.238Z,21.27
2022-10-13T10:48:58.894Z,16.20
2022-10-13T10:51:36.775Z,20.13
2022-10-13T10:54:34.123Z,19.83
2022-10-13T10:57:10.416Z,19.75
2022-10-13T10:59:53.165Z,16.13
2022-10-13T11:02:50.531Z,21.42
2022-10-13T11:05:18.527Z,14.80
2022-10-13T11:07:46.557Z,16.20
2022-10-13T11:10:14.072Z,17.42
2022-10-13T11:12:52.591Z,24.25
2022-10-13T11:15:31.271Z,22.98
2022-10-13T11:17:59.129Z,22.52
2022-10-13T11:20:46.415Z,18.08
2022-10-13T11:23:13.996Z,23.15
2022-10-13T11:25:43.738Z,20.77
2022-10-13T11:28:23.540Z,15.05
2022-10-13T11:31:17.995Z,20.95
2022-10-13T11:33:47.854Z,19.08
2022-10-13T11:36:56.630Z,17.15
2022-10-13T11:39:27.840Z,19.33
2022-10-13T11:42:04.810Z,13.68
2022-10-13T11:45:18.634Z,15.38
2022-10-13T11:48:19.863Z,13.50
2022-10-13T11:51:01.183Z,11.93
2022-10-13T11:54:13.144Z,13.38
2022-10-13T11:56:49.056Z,17.10
2022-10-13T11:59:29.509Z,14.32
2022-10-13T12:02:18.875Z,20.70
2022-10-13T12:05:19.757Z,20.40
2022-10-13T12:07:49.501Z,13.85
2022-10-13T12:10:32.130Z,15.65
2022-10-13T12:13:01.594Z,11.38
2022-10-13T12:15:41.989Z,13.60
2022-10-13T12:18:40.643Z,12.50
2022-10-13T12:23:43.276Z,11.32
2022-10-13T12:26:25.333Z,12.27
2022-10-13T12:28:57.922Z,14.48
2022-10-13T12:31:40.417Z,16.92
2022-10-13T12:34:29.232Z,13.23
2022-10-13T12:37:33.407Z,20.08
2022-10-13T12:40:04.526Z,17.08
2022-10-13T12:42:35.474Z,17.60
2022-10-13T12:45:04.577Z,26.58
2022-10-13T12:47:58.507Z,14.50
2022-10-13T12:50:28.814Z,15.43
2022-10-13T12:53:20.556Z,11.75
2022-10-13T12:56:03.690Z,13.32
2022-10-13T12:58:35.254Z,10.93
2022-10-13T13:01:14.907Z,13.60
2022-10-13T13:03:44.552Z,17.15
2022-10-13T13:06:28.386Z,11.07
2022-10-13T13:09:09.933Z,16.10
2022-10-13T13:11:39.208Z,17.67
2022-10-13T13:14:38.062Z,20.00
2022-10-13T13:17:45.369Z,22.77
2022-10-13T13:20:34.890Z,22.40
2022-10-13T13:25:30.087Z,19.73
2022-10-13T13:27:57.549Z,20.90
2022-10-13T13:30:26.507Z,19.25
2022-10-13T13:32:53.978Z,14.77
2022-10-13T13:35:21.457Z,16.65
2022-10-13T13:37:53.393Z,11.98
2022-10-13T13:40:24.891Z,15.30
2022-10-13T13:42:53.667Z,16.33
2022-10-13T13:45:24.966Z,12.90
2022-10-13T13:47:59.459Z,14.85
2022-10-13T13:50:38.174Z,17.75
2022-10-13T13:53:06.549Z,13.98
2022-10-13T13:55:34.232Z,18.73
2022-10-13T13:58:02.327Z,14.93
2022-10-13T14:00:29.866Z,17.67
2022-10-13T14:02:57.979Z,12.40
2022-10-13T14:05:26.051Z,17.13
2022-10-13T14:07:57.719Z,11.60
2022-10-13T14:10:26.780Z,12.15
2022-10-13T14:12:54.609Z,17.80
2022-10-13T14:15:25.836Z,12.48
2022-10-13T14:17:56.656Z,14.75
2022-10-13T14:20:24.134Z,15.98
2022-10-13T14:22:51.843Z,14.38
2022-10-13T14:25:19.957Z,13.95
2022-10-13T14:27:47.425Z,13.70
2022-10-13T14:30:15.125Z,18.42
2022-10-13T14:32:42.885Z,26.17
2022-10-13T14:35:10.713Z,18.00
2022-10-13T14:37:38.581Z,29.25
2022-10-13T14:40:07.277Z,14.38
2022-10-13T14:42:34.704Z,21.40
2022-10-13T14:45:06.650Z,15.52
2022-10-13T14:47:35.143Z,13.32
2022-10-13T14:50:02.912Z,20.10
2022-10-13T14:52:30.926Z,14.73
2022-10-13T14:54:58.768Z,18.05
2022-10-13T14:57:26.460Z,23.58
2022-10-13T14:59:56.876Z,19.92
2022-10-13T15:02:28.366Z,22.60
2022-10-13T15:04:56.093Z,23.25
2022-10-13T15:07:23.848Z,14.68
2022-10-13T15:10:04.175Z,20.15
2022-10-13T15:12:34.263Z,16.95
2022-10-13T15:15:02.641Z,18.85
2022-10-13T15:17:31.627Z,37.75
2022-10-13T15:19:59.797Z,21.67
2022-10-13T15:22:27.368Z,22.08
2022-10-13T15:24:54.915Z,21.95
2022-10-13T15:27:23.678Z,24.90
2022-10-13T15:29:51.199Z,21.88
2022-10-13T15:32:20.457Z,23.00
2022-10-13T15:34:55.852Z,24.17
2022-10-13T15:37:23.490Z,19.17
2022-10-13T15:39:56.916Z,36.75
2022-10-13T15:42:25.368Z,32.00
2022-10-13T15:45:10.493Z,27.02
2022-10-13T15:47:39.008Z,32.40
2022-10-13T15:50:07.887Z,26.88
2022-10-13T15:52:40.475Z,26.13
2022-10-13T15:55:11.308Z,23.52
2022-10-13T15:57:39.733Z,23.38
2022-10-13T16:00:09.794Z,24.88
2022-10-13T16:02:44.217Z,20.67
2022-10-13T16:05:13.502Z,27.90
2022-10-13T16:07:42.034Z,28.55
2022-10-13T16:10:12.344Z,26.77
2022-10-13T16:12:44.412Z,27.90
2022-10-13T16:15:17.661Z,27.45
2022-10-13T16:17:48.437Z,33.05
2022-10-13T16:20:15.996Z,29.35
2022-10-13T16:22:43.954Z,33.63
2022-10-13T16:25:12.255Z,28.17
2022-10-13T16:27:44.098Z,31.17
2022-10-13T16:30:12.955Z,33.72
2022-10-13T16:32:41.051Z,37.20
2022-10-13T16:35:09.144Z,41.80
2022-10-13T16:37:36.908Z,30.37
2022-10-13T16:40:04.751Z,36.53
2022-10-13T16:42:32.513Z,32.50
2022-10-13T16:44:59.923Z,39.38
2022-10-13T16:47:28.236Z,33.58
2022-10-13T16:49:55.844Z,43.75
2022-10-13T16:52:24.767Z,46.47
2022-10-13T16:54:52.706Z,37.00
2022-10-13T16:57:20.958Z,45.47
2022-10-13T16:59:49.863Z,47.95
2022-10-13T17:02:17.338Z,36.20
2022-10-13T17:04:45.128Z,40.97
2022-10-13T17:07:13.335Z,41.33
2022-10-13T17:09:41.112Z,30.13
2022-10-13T17:12:08.706Z,22.63
2022-10-13T17:14:36.740Z,29.00
2022-10-13T17:17:04.338Z,38.35
2022-10-13T17:19:32.310Z,22.50
2022-10-13T17:21:59.819Z,25.20
2022-10-13T17:24:27.621Z,32.83
2022-10-13T17:26:55.142Z,35.47
2022-10-13T17:29:22.867Z,30.15
2022-10-13T17:31:52.479Z,29.45
2022-10-13T17:34:22.777Z,25.55
2022-10-13T17:36:52.006Z,34.60
2022-10-13T17:39:19.741Z,30.08
2022-10-13T17:41:47.216Z,24.23
2022-10-13T17:44:20.212Z,24.05
2022-10-13T17:46:49.998Z,30.38
2022-10-13T17:49:18.311Z,33.95
2022-10-13T17:51:46.584Z,22.48
2022-10-13T17:54:16.609Z,25.83
2022-10-13T17:56:45.993Z,21.77
2022-10-13T17:59:15.733Z,26.90
2022-10-13T18:01:44.990Z,22.02
2022-10-13T18:04:16.483Z,18.48
2022-10-13T18:06:46.709Z,24.92
2022-10-13T18:09:22.303Z,36.35
2022-10-13T18:11:54.678Z,30.52
2022-10-13T18:14:24.983Z,30.23
2022-10-13T18:16:53.336Z,32.15
2022-10-13T18:19:21.708Z,34.83
2022-10-13T18:21:50.279Z,23.67
2022-10-13T18:24:17.827Z,24.45
2022-10-13T18:26:46.469Z,29.23
2022-10-13T18:29:14.383Z,22.63
2022-10-13T18:31:42.834Z,25.50
2022-10-13T18:34:17.407Z,30.27
2022-10-13T18:36:50.392Z,22.80
2022-10-13T18:39:25.811Z,20.73
2022-10-13T18:41:57.471Z,22.23
2022-10-13T18:44:34.517Z,23.00
2022-10-13T18:47:03.602Z,25.25
2022-10-13T18:49:31.578Z,20.23
2022-10-13T18:52:00.994Z,19.95
2022-10-13T18:54:32.111Z,21.05
2022-10-13T18:56:59.714Z,27.48
2022-10-13T18:59:27.424Z,20.17
2022-10-13T19:01:55.345Z,33.47
2022-10-13T19:04:23.671Z,20.50
2022-10-13T19:06:51.293Z,21.95
2022-10-13T19:09:19.647Z,20.23
2022-10-13T19:11:47.306Z,20.10
2022-10-13T19:14:16.973Z,21.67
2022-10-13T19:16:45.290Z,24.27
2022-10-13T19:19:14.244Z,24.35
2022-10-13T19:21:42.704Z,27.40
2022-10-13T19:24:11.755Z,20.98
2022-10-13T19:26:41.615Z,21.20
2022-10-13T19:29:13.073Z,22.40
2022-10-13T19:31:42.780Z,20.90
2022-10-13T19:36:44.608Z,23.77
2022-10-13T19:39:37.749Z,19.65
2022-10-13T19:42:19.446Z,16.75
2022-10-13T19:44:47.247Z,17.88
2022-10-13T19:47:14.770Z,22.13
2022-10-13T19:49:42.235Z,22.85
2022-10-13T19:52:10.008Z,20.38
2022-10-13T19:54:40.645Z,20.58
2022-10-13T19:57:09.274Z,25.20
2022-10-13T19:59:38.579Z,19.00
2022-10-13T20:02:06.099Z,21.38
2022-10-13T20:04:33.825Z,21.83
2022-10-13T20:07:01.889Z,22.42
2022-10-13T20:09:29.488Z,26.60
2022-10-13T20:11:57.153Z,15.07
2022-10-13T20:14:24.907Z,19.77
2022-10-13T20:16:53.520Z,25.63
2022-10-13T20:19:21.128Z,20.17
2022-10-13T20:21:51.795Z,21.90
2022-10-13T20:24:23.804Z,21.88
2022-10-13T20:26:52.929Z,17.67
2022-10-13T20:29:32.788Z,14.95
2022-10-13T20:32:32.184Z,14.43
2022-10-13T20:35:00.537Z,19.02
2022-10-13T20:37:28.645Z,21.35
2022-10-13T20:39:57.213Z,19.13
2022-10-13T20:42:25.065Z,18.02
2022-10-13T20:44:52.820Z,22.98
2022-10-13T20:47:20.762Z,17.58
2022-10-13T20:49:48.719Z,18.05
2022-10-13T20:52:17.072Z,17.17
2022-10-13T20:54:47.675Z,13.73
2022-10-13T20:57:15.431Z,18.50
2022-10-13T20:59:45.245Z,16.35
2022-10-13T21:02:13.954Z,18.67
2022-10-13T21:04:42.143Z,19.38
2022-10-13T21:07:09.713Z,16.80
2022-10-13T21:09:37.633Z,25.60
2022-10-13T21:12:07.802Z,17.63
2022-10-13T21:14:38.272Z,13.27
2022-10-13T21:17:07.278Z,16.65
2022-10-13T21:19:36.422Z,18.95
2022-10-13T21:22:03.982Z,17.17
2022-10-13T21:24:32.168Z,20.48
2022-10-13T21:26:59.658Z,16.98
2022-10-13T21:29:27.538Z,16.08
2022-10-13T21:31:55.733Z,17.63
2022-10-13T21:34:23.785Z,23.50
2022-10-13T21:36:52.089Z,14.95
2022-10-13T21:39:19.816Z,16.40
2022-10-13T21:41:47.425Z,18.42
2022-10-13T21:44:15.048Z,14.90
2022-10-13T21:46:43.023Z,15.45
2022-10-13T21:49:11.232Z,16.55
2022-10-13T21:54:13.414Z,16.00
2022-10-13T21:56:45.428Z,13.45
2022-10-13T21:59:16.050Z,22.70
2022-10-13T22:04:15.730Z,21.25
2022-10-13T22:06:43.461Z,25.80
2022-10-13T22:09:11.838Z,16.25
2022-10-13T22:11:40.361Z,22.30
2022-10-13T22:14:14.375Z,20.92
2022-10-13T22:16:46.872Z,17.85
2022-10-13T22:19:33.363Z,22.67
2022-10-13T22:22:00.864Z,16.92
2022-10-13T22:24:28.469Z,16.02
2022-10-13T22:26:56.721Z,23.98
2022-10-13T22:29:25.299Z,16.85
2022-10-13T22:31:57.888Z,24.77
2022-10-13T22:34:26.504Z,22.98
2022-10-13T22:36:54.731Z,17.75
2022-10-13T22:39:23.593Z,18.08
2022-10-13T22:41:54.145Z,22.00
2022-10-13T22:44:21.859Z,17.60
2022-10-13T22:46:49.383Z,25.05
2022-10-13T22:49:17.129Z,19.25
2022-10-13T22:51:44.625Z,23.67
2022-10-13T22:54:12.505Z,20.17
2022-10-13T22:56:41.715Z,21.00
2022-10-13T22:59:09.862Z,16.15
2022-10-13T23:01:37.426Z,17.73
2022-10-13T23:04:05.736Z,18.15
2022-10-13T23:06:35.249Z,24.77
2022-10-13T23:09:09.163Z,17.95
2022-10-13T23:11:37.565Z,24.25
2022-10-13T23:14:06.523Z,17.55
2022-10-13T23:16:34.296Z,18.02
2022-10-13T23:19:02.830Z,20.83
2022-10-13T23:21:31.200Z,17.75
2022-10-13T23:24:03.058Z,21.20
2022-10-13T23:26:33.930Z,23.33
2022-10-13T23:29:02.869Z,17.88
2022-10-13T23:31:30.599Z,17.48
2022-10-13T23:33:58.912Z,23.38
2022-10-13T23:36:30.980Z,19.83
2022-10-13T23:39:05.588Z,21.80
2022-10-13T23:41:35.132Z,20.70
2022-10-13T23:44:03.282Z,13.10
2022-10-13T23:46:31.625Z,17.08
2022-10-13T23:48:59.100Z,22.75
2022-10-13T23:51:27.204Z,16.02
2022-10-13T23:53:55.801Z,17.38
2022-10-13T23:56:23.881Z,19.95
2022-10-13T23:58:51.812Z,19.75
